createdAt,value
2018-03-19T00:01:08.849Z,-2.39
2018-03-19T00:03:34.644Z,-2.37
2018-03-19T00:06:00.444Z,-2.32
2018-03-19T00:08:26.247Z,-2.30
2018-03-19T00:10:52.033Z,-2.45
2018-03-19T00:13:17.857Z,-2.41
2018-03-19T00:15:43.664Z,-0.31
2018-03-19T00:18:09.468Z,-0.81
2018-03-19T00:20:35.295Z,-1.08
2018-03-19T00:23:01.110Z,-1.87
2018-03-19T00:25:26.903Z,-2.22
2018-03-19T00:27:52.781Z,-2.36
2018-03-19T00:30:18.517Z,-2.42
2018-03-19T00:32:44.316Z,-2.45
2018-03-19T00:35:10.479Z,-2.45
2018-03-19T00:37:36.262Z,-2.47
2018-03-19T00:40:02.066Z,-2.62
2018-03-19T00:44:53.597Z,-2.61
2018-03-19T00:47:19.397Z,-2.67
2018-03-19T00:49:45.240Z,-2.68
2018-03-19T00:52:11.048Z,-2.77
2018-03-19T00:54:36.834Z,-2.72
2018-03-19T00:57:02.654Z,-2.78
2018-03-19T00:59:28.448Z,-2.38
2018-03-19T01:01:54.242Z,-2.74
2018-03-19T01:04:20.096Z,-2.85
2018-03-19T01:06:45.875Z,-2.93
2018-03-19T01:09:11.666Z,-2.95
2018-03-19T01:11:37.476Z,-2.98
2018-03-19T01:14:03.279Z,-2.94
2018-03-19T01:16:29.079Z,-1.57
2018-03-19T01:18:54.870Z,0.55
2018-03-19T01:21:20.679Z,0.38
2018-03-19T01:23:46.468Z,-0.52
2018-03-19T01:26:12.270Z,-1.98
2018-03-19T01:28:38.063Z,-2.55
2018-03-19T01:31:03.851Z,-2.60
2018-03-19T01:33:30.012Z,-2.80
2018-03-19T01:35:55.800Z,-2.78
2018-03-19T01:38:21.587Z,-2.83
2018-03-19T01:40:47.412Z,-2.79
2018-03-19T01:43:13.202Z,-2.89
2018-03-19T01:45:39.009Z,-2.97
2018-03-19T01:48:04.827Z,-3.02
2018-03-19T01:50:30.615Z,-2.93
2018-03-19T01:52:56.412Z,-2.88
2018-03-19T01:55:22.240Z,-2.95
2018-03-19T01:57:48.042Z,-3.01
2018-03-19T02:00:13.852Z,-3.02
2018-03-19T02:02:39.664Z,-2.91
2018-03-19T02:05:05.464Z,-3.07
2018-03-19T02:07:31.254Z,-2.99
2018-03-19T02:09:57.072Z,-3.01
2018-03-19T02:12:22.861Z,-3.03
2018-03-19T02:14:48.663Z,-2.99
2018-03-19T02:17:14.560Z,-3.04
2018-03-19T02:19:40.380Z,-3.13
2018-03-19T02:22:06.209Z,-3.04
2018-03-19T02:24:32.035Z,-3.12
2018-03-19T03:01:08.034Z,-3.36
2018-03-19T03:03:33.824Z,-3.45
2018-03-19T03:05:59.627Z,-3.36
2018-03-19T03:08:25.725Z,-3.43
2018-03-19T03:13:24.016Z,-3.41
2018-03-19T03:15:49.808Z,-3.28
2018-03-19T03:18:15.985Z,-3.39
2018-03-19T03:20:41.776Z,-3.37
2018-03-19T03:23:07.548Z,-3.23
2018-03-19T03:25:33.726Z,-3.22
2018-03-19T03:27:59.514Z,-3.17
2018-03-19T03:30:25.284Z,-3.18
2018-03-19T03:32:51.099Z,-3.31
2018-03-19T03:35:16.888Z,-3.28
2018-03-19T03:37:42.663Z,-3.30
2018-03-19T03:40:08.467Z,-3.42
2018-03-19T03:42:34.252Z,-3.49
2018-03-19T03:45:00.052Z,-3.42
2018-03-19T03:47:25.830Z,-3.51
2018-03-19T03:49:51.621Z,-3.46
2018-03-19T03:52:17.437Z,-3.33
2018-03-19T03:54:43.210Z,-3.36
2018-03-19T03:57:08.994Z,-3.44
2018-03-19T03:59:34.796Z,-3.54
2018-03-19T04:02:02.392Z,-3.49
2018-03-19T04:04:28.150Z,-3.42
2018-03-19T04:06:53.939Z,-3.33
2018-03-19T04:09:19.727Z,-3.26
2018-03-19T04:11:45.503Z,-3.46
2018-03-19T04:14:11.334Z,-3.57
2018-03-19T04:16:37.131Z,-3.60
2018-03-19T04:19:09.789Z,-3.64
2018-03-19T04:21:35.597Z,-3.72
2018-03-19T04:24:01.381Z,-3.56
2018-03-19T04:26:27.203Z,-3.67
2018-03-19T04:28:52.984Z,-3.65
2018-03-19T04:31:18.770Z,-3.54
2018-03-19T04:33:44.569Z,-3.67
2018-03-19T04:36:10.362Z,-3.68
2018-03-19T04:38:36.138Z,-3.75
2018-03-19T04:41:01.950Z,-3.73
2018-03-19T04:43:27.742Z,-3.65
2018-03-19T04:45:53.533Z,-3.69
2018-03-19T04:48:19.326Z,-3.60
2018-03-19T04:50:45.472Z,-3.67
2018-03-19T04:53:11.267Z,-3.69
2018-03-19T04:55:37.068Z,-3.77
2018-03-19T04:58:02.868Z,-3.78
2018-03-19T05:00:28.662Z,-3.92
2018-03-19T05:02:55.667Z,-3.86
2018-03-19T05:05:22.288Z,-3.80
2018-03-19T05:07:48.892Z,-3.37
2018-03-19T05:10:15.084Z,-2.99
2018-03-19T05:12:40.896Z,-3.58
2018-03-19T05:15:07.452Z,-3.61
2018-03-19T05:17:33.324Z,-3.66
2018-03-19T05:19:59.111Z,-3.78
2018-03-19T05:22:24.889Z,-3.75
2018-03-19T05:24:50.711Z,-3.62
2018-03-19T05:27:16.504Z,-3.78
2018-03-19T05:29:42.315Z,-3.76
2018-03-19T05:32:08.113Z,-3.76
2018-03-19T05:34:33.887Z,-3.91
2018-03-19T05:36:59.675Z,-3.93
2018-03-19T05:39:25.498Z,-3.93
2018-03-19T05:41:51.277Z,-3.93
2018-03-19T05:44:17.064Z,-3.98
2018-03-19T05:46:42.857Z,-3.90
2018-03-19T05:49:08.669Z,-3.93
2018-03-19T05:51:34.456Z,-3.90
2018-03-19T05:54:00.238Z,-3.91
2018-03-19T05:56:26.071Z,-3.78
2018-03-19T05:58:51.871Z,-3.84
2018-03-19T06:01:17.688Z,-3.83
2018-03-19T06:06:14.914Z,-3.75
2018-03-19T06:08:40.725Z,-3.78
2018-03-19T06:11:06.516Z,-3.70
2018-03-19T06:13:32.307Z,-3.69
2018-03-19T06:15:58.110Z,-3.63
2018-03-19T06:18:23.918Z,-3.63
2018-03-19T06:20:49.706Z,-3.64
2018-03-19T06:23:15.491Z,-3.63
2018-03-19T06:25:41.349Z,-3.53
2018-03-19T06:28:07.173Z,-3.56
2018-03-19T06:30:32.935Z,-3.41
2018-03-19T06:32:58.720Z,-3.31
2018-03-19T06:35:24.522Z,-3.29
2018-03-19T06:37:50.320Z,-3.32
2018-03-19T06:40:16.135Z,-3.21
2018-03-19T06:42:41.924Z,-3.17
2018-03-19T06:45:07.743Z,-3.05
2018-03-19T06:47:33.535Z,-3.05
2018-03-19T06:49:59.322Z,-3.01
2018-03-19T06:52:25.096Z,-2.90
2018-03-19T06:54:50.898Z,-2.88
2018-03-19T06:57:16.700Z,-2.72
2018-03-19T06:59:42.523Z,-2.71
2018-03-19T07:02:08.311Z,-2.75
2018-03-19T07:04:34.090Z,-2.63
2018-03-19T07:07:00.013Z,-2.59
2018-03-19T07:09:25.923Z,-2.51
2018-03-19T07:11:51.711Z,-2.46
2018-03-19T07:14:17.501Z,-2.29
2018-03-19T07:16:43.317Z,-2.32
2018-03-19T07:19:09.108Z,-2.33
2018-03-19T07:21:34.879Z,-2.22
2018-03-19T07:24:00.655Z,-2.14
2018-03-19T07:26:26.839Z,-1.98
2018-03-19T07:28:52.622Z,-1.93
2018-03-19T07:31:18.398Z,-1.84
2018-03-19T07:33:44.208Z,-1.78
2018-03-19T07:36:09.999Z,-1.76
2018-03-19T07:38:35.779Z,-1.66
2018-03-19T07:41:01.597Z,-1.51
2018-03-19T07:43:27.468Z,-1.29
2018-03-19T07:45:53.247Z,-1.19
2018-03-19T07:48:19.139Z,-1.37
2018-03-19T07:50:44.942Z,-1.24
2018-03-19T07:53:10.728Z,-1.08
2018-03-19T07:55:36.546Z,-1.04
2018-03-19T07:58:02.335Z,-0.88
2018-03-19T08:00:28.131Z,-0.66
2018-03-19T08:02:54.321Z,-0.33
2018-03-19T08:05:20.115Z,0.20
2018-03-19T08:07:45.906Z,-0.10
2018-03-19T08:10:11.783Z,-0.38
2018-03-19T08:12:37.583Z,-0.54
2018-03-19T08:15:05.272Z,-0.44
2018-03-19T08:17:31.131Z,-0.29
2018-03-19T08:19:57.004Z,-0.29
2018-03-19T08:22:23.762Z,-0.32
2018-03-19T08:24:49.571Z,-0.35
2018-03-19T08:27:16.690Z,-0.19
2018-03-19T08:29:42.572Z,-0.13
2018-03-19T08:32:08.367Z,-0.16
2018-03-19T08:34:34.231Z,0.03
2018-03-19T08:37:00.032Z,0.11
2018-03-19T08:39:25.888Z,0.09
2018-03-19T08:41:52.093Z,0.09
2018-03-19T08:44:17.976Z,0.21
2018-03-19T08:46:43.786Z,0.23
2018-03-19T08:49:10.600Z,0.04
2018-03-19T08:51:36.726Z,0.12
2018-03-19T08:54:02.575Z,0.10
2018-03-19T08:56:29.008Z,0.22
2018-03-19T08:58:54.837Z,0.30
2018-03-19T09:01:20.827Z,0.33
2018-03-19T09:03:46.629Z,0.55
2018-03-19T09:06:12.460Z,0.66
2018-03-19T09:08:38.243Z,0.80
2018-03-19T09:11:04.034Z,0.64
2018-03-19T09:13:29.843Z,0.82
2018-03-19T09:15:55.646Z,0.94
2018-03-19T09:18:21.502Z,0.76
2018-03-19T09:20:47.290Z,0.84
2018-03-19T09:23:13.071Z,1.05
2018-03-19T09:25:38.892Z,1.06
2018-03-19T09:28:04.699Z,1.28
2018-03-19T09:30:30.486Z,1.53
2018-03-19T09:32:56.280Z,1.35
2018-03-19T09:35:22.071Z,1.35
2018-03-19T09:37:48.203Z,1.34
2018-03-19T09:40:13.974Z,1.42
2018-03-19T09:42:39.768Z,1.47
2018-03-19T09:45:05.608Z,1.66
2018-03-19T09:47:31.417Z,1.72
2018-03-19T09:49:57.207Z,1.78
2018-03-19T09:52:23.003Z,1.85
2018-03-19T09:54:48.782Z,1.92
2018-03-19T09:57:14.572Z,2.05
2018-03-19T09:59:40.379Z,1.84
2018-03-19T10:02:06.458Z,1.74
2018-03-19T10:04:32.258Z,1.95
2018-03-19T10:06:58.036Z,1.96
2018-03-19T10:09:23.860Z,2.02
2018-03-19T10:11:49.651Z,2.16
2018-03-19T10:14:15.458Z,2.44
2018-03-19T10:16:41.256Z,2.40
2018-03-19T10:19:07.067Z,2.31
2018-03-19T10:21:32.904Z,2.44
2018-03-19T10:23:58.699Z,2.74
2018-03-19T10:26:24.487Z,3.12
2018-03-19T10:28:50.316Z,3.06
2018-03-19T10:31:16.148Z,2.97
2018-03-19T10:33:41.964Z,2.86
2018-03-19T10:36:07.745Z,2.77
2018-03-19T10:38:33.580Z,2.89
2018-03-19T10:40:59.355Z,2.74
2018-03-19T10:43:25.148Z,2.81
2018-03-19T10:45:51.222Z,3.07
2018-03-19T10:48:17.056Z,3.15
2018-03-19T10:50:42.856Z,3.00
2018-03-19T10:53:08.656Z,3.01
2018-03-19T10:55:34.437Z,3.29
2018-03-19T10:58:00.494Z,3.20
2018-03-19T11:00:26.311Z,3.10
2018-03-19T11:02:54.103Z,3.06
2018-03-19T11:05:26.072Z,3.10
2018-03-19T11:07:57.935Z,3.31
2018-03-19T11:10:23.732Z,3.37
2018-03-19T11:12:49.536Z,3.32
2018-03-19T11:15:15.389Z,3.32
2018-03-19T11:17:41.210Z,3.23
2018-03-19T11:20:07.257Z,3.29
2018-03-19T11:22:33.035Z,3.29
2018-03-19T11:24:58.863Z,3.27
2018-03-19T11:27:24.672Z,3.33
2018-03-19T11:29:50.462Z,3.26
2018-03-19T11:32:16.606Z,3.13
2018-03-19T11:34:42.457Z,3.50
2018-03-19T11:37:08.293Z,3.38
2018-03-19T11:39:34.122Z,3.53
2018-03-19T11:41:59.952Z,3.58
2018-03-19T11:44:26.424Z,3.57
2018-03-19T11:46:52.211Z,3.53
2018-03-19T11:49:18.052Z,3.48
2018-03-19T11:51:43.904Z,3.13
2018-03-19T11:54:10.424Z,3.03
2018-03-19T11:56:36.236Z,3.11
2018-03-19T11:59:02.048Z,3.31
2018-03-19T12:01:27.859Z,3.60
2018-03-19T12:03:53.672Z,4.00
2018-03-19T12:06:19.520Z,3.51
2018-03-19T12:08:45.325Z,3.50
2018-03-19T12:11:12.114Z,3.64
2018-03-19T12:13:37.922Z,3.84
2018-03-19T12:16:04.694Z,4.06
2018-03-19T12:18:30.520Z,4.08
2018-03-19T12:20:56.390Z,4.29
2018-03-19T12:23:22.896Z,4.85
2018-03-19T12:25:49.410Z,4.94
2018-03-19T12:28:15.230Z,5.58
2018-03-19T12:30:41.064Z,5.84
2018-03-19T12:33:06.857Z,5.96
2018-03-19T12:35:32.663Z,5.78
2018-03-19T12:37:58.551Z,6.16
2018-03-19T12:40:24.389Z,6.49
2018-03-19T12:42:50.179Z,6.77
2018-03-19T12:45:16.003Z,8.22
2018-03-19T12:47:42.707Z,7.15
2018-03-19T12:50:08.567Z,7.19
2018-03-19T12:52:34.388Z,8.84
2018-03-19T12:55:01.110Z,8.51
2018-03-19T12:57:27.020Z,8.23
2018-03-19T12:59:52.822Z,7.72
2018-03-19T13:02:18.751Z,7.80
2018-03-19T13:04:44.588Z,7.79
2018-03-19T13:07:10.428Z,7.97
2018-03-19T13:09:36.236Z,7.59
2018-03-19T13:12:03.045Z,8.06
2018-03-19T13:14:28.968Z,7.66
2018-03-19T13:16:55.536Z,7.56
2018-03-19T13:19:21.357Z,7.89
2018-03-19T13:21:47.182Z,8.04
2018-03-19T13:24:12.973Z,8.36
2018-03-19T13:26:38.769Z,8.48
2018-03-19T13:29:04.600Z,8.55
2018-03-19T13:31:30.931Z,9.32
2018-03-19T13:33:56.843Z,8.87
2018-03-19T13:36:23.387Z,8.84
2018-03-19T13:38:49.227Z,9.22
2018-03-19T13:41:15.039Z,9.44
2018-03-19T13:43:40.854Z,9.12
2018-03-19T13:46:06.672Z,9.54
2018-03-19T13:48:32.487Z,9.77
2018-03-19T13:50:58.491Z,9.43
2018-03-19T13:53:24.355Z,9.57
2018-03-19T13:55:50.138Z,9.63
2018-03-19T13:58:15.936Z,8.57
2018-03-19T14:00:41.798Z,9.50
2018-03-19T14:03:07.754Z,10.04
2018-03-19T14:05:33.606Z,10.08
2018-03-19T14:07:59.367Z,9.88
2018-03-19T14:10:25.221Z,10.18
2018-03-19T14:12:51.079Z,10.06
2018-03-19T14:15:16.883Z,10.02
2018-03-19T14:17:42.702Z,10.13
2018-03-19T14:20:08.535Z,9.71
2018-03-19T14:22:34.327Z,9.71
2018-03-19T14:25:00.128Z,8.37
2018-03-19T14:27:25.960Z,8.09
2018-03-19T14:29:51.795Z,7.50
2018-03-19T14:32:17.625Z,7.20
2018-03-19T14:34:43.532Z,7.43
2018-03-19T14:37:09.983Z,6.91
2018-03-19T14:39:35.798Z,6.89
2018-03-19T14:42:01.629Z,6.32
2018-03-19T14:44:28.030Z,6.17
2018-03-19T14:46:53.988Z,6.12
2018-03-19T14:49:19.835Z,6.30
2018-03-19T14:51:45.643Z,6.84
2018-03-19T14:54:11.444Z,6.49
2018-03-19T14:56:37.247Z,6.84
2018-03-19T14:59:03.416Z,6.38
2018-03-19T15:01:29.305Z,6.49
2018-03-19T15:03:55.202Z,6.38
2018-03-19T15:06:21.314Z,6.68
2018-03-19T15:08:47.167Z,6.10
2018-03-19T15:11:12.981Z,6.57
2018-03-19T15:13:38.781Z,6.57
2018-03-19T15:16:04.907Z,5.99
2018-03-19T15:18:31.248Z,5.67
2018-03-19T15:20:57.987Z,5.45
2018-03-19T15:23:24.786Z,5.52
2018-03-19T15:25:50.668Z,5.24
2018-03-19T15:28:16.515Z,5.28
2018-03-19T15:30:42.368Z,5.13
2018-03-19T15:33:08.229Z,5.30
2018-03-19T15:35:34.268Z,5.50
2018-03-19T15:38:00.070Z,5.55
2018-03-19T15:40:25.892Z,5.47
2018-03-19T15:42:51.709Z,5.36
2018-03-19T15:45:17.567Z,5.29
2018-03-19T15:47:43.393Z,5.28
2018-03-19T15:50:09.198Z,5.10
2018-03-19T15:52:35.019Z,5.05
2018-03-19T15:55:00.823Z,5.02
2018-03-19T15:57:27.887Z,5.18
2018-03-19T15:59:53.775Z,4.98
2018-03-19T16:02:19.572Z,5.13
2018-03-19T16:04:45.412Z,4.95
2018-03-19T16:07:11.996Z,4.90
2018-03-19T16:09:37.814Z,4.86
2018-03-19T16:12:03.648Z,4.99
2018-03-19T16:14:29.445Z,4.87
2018-03-19T16:16:55.266Z,4.68
2018-03-19T16:19:21.089Z,4.67
2018-03-19T16:21:46.923Z,4.64
2018-03-19T16:24:12.748Z,4.68
2018-03-19T16:26:38.583Z,4.58
2018-03-19T16:29:04.411Z,4.48
2018-03-19T16:31:30.955Z,4.44
2018-03-19T16:33:56.784Z,4.45
2018-03-19T16:36:22.599Z,4.47
2018-03-19T16:38:48.398Z,4.31
2018-03-19T16:41:14.232Z,4.29
2018-03-19T16:43:40.391Z,4.27
2018-03-19T16:46:06.205Z,4.28
2018-03-19T16:48:31.996Z,4.14
2018-03-19T16:50:57.842Z,4.11
2018-03-19T16:53:23.633Z,4.02
2018-03-19T16:55:49.468Z,4.01
2018-03-19T16:58:15.275Z,3.99
2018-03-19T17:00:41.221Z,3.92
2018-03-19T17:03:14.010Z,3.94
2018-03-19T17:05:39.783Z,3.91
2018-03-19T17:08:05.639Z,3.86
2018-03-19T17:10:31.469Z,3.76
2018-03-19T17:12:57.277Z,3.73
2018-03-19T17:15:23.084Z,3.74
2018-03-19T17:17:48.877Z,3.67
2018-03-19T17:20:14.932Z,3.58
2018-03-19T17:22:40.725Z,3.53
2018-03-19T17:25:06.590Z,3.43
2018-03-19T17:27:32.404Z,3.44
2018-03-19T17:29:58.195Z,3.36
2018-03-19T17:32:23.997Z,3.33
2018-03-19T17:34:49.817Z,3.22
2018-03-19T17:37:15.630Z,3.24
2018-03-19T17:39:41.435Z,3.17
2018-03-19T17:42:07.344Z,3.18
2018-03-19T17:44:33.176Z,3.06
2018-03-19T17:46:59.010Z,3.07
2018-03-19T17:49:24.887Z,3.02
2018-03-19T17:51:50.682Z,2.93
2018-03-19T17:54:16.662Z,2.81
2018-03-19T17:56:42.470Z,2.72
2018-03-19T17:59:08.319Z,2.63
2018-03-19T18:01:34.132Z,2.48
2018-03-19T18:03:59.986Z,2.43
2018-03-19T18:06:25.877Z,2.41
2018-03-19T18:08:51.676Z,2.28
2018-03-19T18:11:17.510Z,2.23
2018-03-19T18:13:43.333Z,2.10
2018-03-19T18:16:10.595Z,2.09
2018-03-19T18:18:37.526Z,2.10
2018-03-19T18:21:03.371Z,2.06
2018-03-19T18:23:29.823Z,1.98
2018-03-19T18:25:55.672Z,1.98
2018-03-19T18:28:21.459Z,2.34
2018-03-19T18:30:47.280Z,2.45
2018-03-19T18:33:13.192Z,2.28
2018-03-19T18:35:39.051Z,2.32
2018-03-19T18:38:04.946Z,2.21
2018-03-19T18:40:30.762Z,1.83
2018-03-19T18:42:56.592Z,2.25
2018-03-19T18:45:22.592Z,2.17
2018-03-19T18:47:48.410Z,1.97
2018-03-19T18:50:14.227Z,2.00
2018-03-19T18:52:40.100Z,1.69
2018-03-19T18:55:05.922Z,1.70
2018-03-19T18:57:31.737Z,1.59
2018-03-19T18:59:57.622Z,1.66
2018-03-19T19:02:23.494Z,1.70
2018-03-19T19:04:49.237Z,1.55
2018-03-19T19:07:15.056Z,1.29
2018-03-19T19:09:41.009Z,1.09
2018-03-19T19:12:06.888Z,0.92
2018-03-19T19:14:32.704Z,0.81
2018-03-19T19:16:58.552Z,0.93
2018-03-19T19:19:24.481Z,1.03
2018-03-19T19:21:50.288Z,1.09
2018-03-19T19:24:16.086Z,0.90
2018-03-19T19:26:41.895Z,0.76
2018-03-19T19:29:07.776Z,0.78
2018-03-19T19:31:33.683Z,0.60
2018-03-19T19:33:59.963Z,0.60
2018-03-19T19:36:25.776Z,0.57
2018-03-19T19:38:51.591Z,0.46
2018-03-19T19:41:17.723Z,0.75
2018-03-19T19:43:43.599Z,0.65
2018-03-19T19:46:09.523Z,0.62
2018-03-19T19:48:35.681Z,0.38
2018-03-19T19:51:01.560Z,0.31
2018-03-19T19:53:27.407Z,0.45
2018-03-19T19:55:53.260Z,0.31
2018-03-19T19:58:19.088Z,0.34
2018-03-19T20:00:44.906Z,0.34
2018-03-19T20:03:10.706Z,0.31
2018-03-19T20:05:36.526Z,0.22
2018-03-19T20:08:03.646Z,0.29
2018-03-19T20:10:29.480Z,0.10
2018-03-19T20:12:55.267Z,0.04
2018-03-19T20:15:21.071Z,0.04
2018-03-19T20:17:46.896Z,-0.06
2018-03-19T20:20:12.739Z,-0.03
2018-03-19T20:22:38.555Z,0.01
2018-03-19T20:25:04.396Z,0.15
2018-03-19T20:27:30.284Z,0.10
2018-03-19T20:29:56.066Z,0.15
2018-03-19T20:32:21.872Z,0.07
2018-03-19T20:34:47.730Z,0.03
2018-03-19T20:37:13.608Z,0.20
2018-03-19T20:39:39.432Z,0.20
2018-03-19T20:42:05.266Z,0.15
2018-03-19T20:44:31.158Z,0.15
2018-03-19T20:46:56.966Z,0.13
2018-03-19T20:49:22.886Z,0.14
2018-03-19T20:51:48.707Z,0.17
2018-03-19T20:54:14.551Z,0.27
2018-03-19T20:56:41.806Z,0.30
2018-03-19T20:59:07.646Z,0.28
2018-03-19T21:01:33.501Z,0.39
2018-03-19T21:03:59.412Z,0.35
2018-03-19T21:06:25.292Z,0.35
2018-03-19T21:08:51.135Z,0.43
2018-03-19T21:11:16.982Z,0.25
2018-03-19T21:13:42.978Z,0.14
2018-03-19T21:16:08.893Z,-0.10
2018-03-19T21:18:34.684Z,-0.30
2018-03-19T21:21:00.481Z,-0.15
2018-03-19T21:23:26.271Z,-0.26
2018-03-19T21:25:52.116Z,-0.34
2018-03-19T21:28:18.524Z,-0.27
2018-03-19T21:30:45.207Z,-0.23
2018-03-19T21:33:11.266Z,-0.22
2018-03-19T21:35:37.117Z,-0.23
2018-03-19T21:38:02.920Z,-0.12
2018-03-19T21:40:28.789Z,-0.28
2018-03-19T21:42:55.244Z,-0.36
2018-03-19T21:45:21.063Z,-0.37
2018-03-19T21:47:46.884Z,-0.43
2018-03-19T21:50:12.684Z,-0.46
2018-03-19T21:52:38.515Z,-0.26
2018-03-19T21:55:06.427Z,-0.14
2018-03-19T21:57:32.316Z,-0.14
2018-03-19T21:59:58.198Z,-0.21
2018-03-19T22:02:24.038Z,-0.30
2018-03-19T22:04:49.903Z,-0.32
2018-03-19T22:07:15.706Z,-0.24
2018-03-19T22:09:41.494Z,-0.24
2018-03-19T22:12:07.304Z,-0.21
2018-03-19T22:14:33.098Z,-0.31
2018-03-19T22:16:58.875Z,-0.14
2018-03-19T22:19:24.697Z,-0.20
2018-03-19T22:21:50.492Z,-0.20
2018-03-19T22:24:16.286Z,-0.36
2018-03-19T22:26:42.100Z,-0.26
2018-03-19T22:29:08.203Z,-0.26
2018-03-19T22:31:34.011Z,-0.19
2018-03-19T22:33:59.803Z,-0.21
2018-03-19T22:36:25.584Z,-0.17
2018-03-19T22:38:51.386Z,-0.18
2018-03-19T22:41:17.207Z,-0.19
2018-03-19T22:43:43.011Z,-0.13
2018-03-19T22:46:08.799Z,-0.19
2018-03-19T22:48:34.606Z,-0.29
2018-03-19T22:51:00.397Z,-0.24
2018-03-19T22:53:26.179Z,-0.18
2018-03-19T22:55:51.970Z,-0.21
2018-03-19T22:58:17.767Z,-0.17
2018-03-19T23:00:43.587Z,-0.13
2018-03-19T23:03:09.384Z,-0.12
2018-03-19T23:05:35.171Z,-0.08
2018-03-19T23:08:00.958Z,-0.01
2018-03-19T23:10:26.755Z,-0.08
2018-03-19T23:12:52.551Z,-0.06
2018-03-19T23:15:18.350Z,0.01
2018-03-19T23:17:44.240Z,-0.16
2018-03-19T23:20:10.023Z,-0.25
2018-03-19T23:22:35.817Z,-0.11
2018-03-19T23:25:01.633Z,-0.14
2018-03-19T23:27:27.422Z,-0.18
2018-03-19T23:29:53.207Z,-0.10
2018-03-19T23:32:19.070Z,-0.08
2018-03-19T23:34:44.852Z,0.01
2018-03-19T23:37:10.626Z,0.05
2018-03-19T23:39:36.448Z,0.00
2018-03-19T23:42:02.288Z,-0.02
2018-03-19T23:44:28.078Z,0.04
2018-03-19T23:46:53.868Z,0.03
2018-03-19T23:49:19.667Z,0.03
2018-03-19T23:51:45.454Z,0.11
2018-03-19T23:54:11.294Z,0.17
2018-03-19T23:56:37.092Z,0.19
2018-03-19T23:59:02.944Z,0.26
